Pikangikum, Canada
Current Conditions -  °F | °C
As of 7:00 PM on Saturday 20 Dec 2014 (Local Time) from CYRL Reporting Station
Freezing Drizzle Freezing Drizzle  
Wind Chill: 19°   Ceiling: 200
Heat Index: 27°   Visibility: 3mi
Dew Point: 25°   Wind: 7mph
Humidity: 93%   Direction: 140°SE
Pressure: 29.94"   Gusts: NA
Location:  51.82°N, 94°W
Report Text: CYRL 210100Z 14006KT 3SM -FZDZ BR OVC002 M03/M04 A2994 RMK FG7ST1 ICE ON INDICATOR SLP163
Loading
Personal Weather Stations






























Interactive Weather Map New forecast layout! Learn more

10-Day Weather Forecast

Advertisements
Track Severe Weather on mobile